createdAt,value
2018-02-09T00:00:57.990Z,53.40
2018-02-09T00:03:27.844Z,51.60
2018-02-09T00:05:57.755Z,51.80
2018-02-09T00:08:27.629Z,49.70
2018-02-09T00:10:57.828Z,52.77
2018-02-09T00:13:27.770Z,52.10
2018-02-09T00:15:57.794Z,51.43
2018-02-09T00:18:27.694Z,50.30
2018-02-09T00:20:57.946Z,53.20
2018-02-09T00:23:27.818Z,48.50
2018-02-09T00:25:59.176Z,48.67
2018-02-09T00:28:29.023Z,48.67
2018-02-09T00:30:58.882Z,49.73
2018-02-09T00:33:28.728Z,53.57
2018-02-09T00:35:58.587Z,48.30
2018-02-09T00:38:28.566Z,51.17
2018-02-09T00:40:58.410Z,53.47
2018-02-09T00:43:28.353Z,49.30
2018-02-09T00:45:58.320Z,48.87
2018-02-09T00:48:28.181Z,48.30
2018-02-09T00:50:58.092Z,51.73
2018-02-09T00:53:27.954Z,49.73
2018-02-09T00:55:57.902Z,50.77
2018-02-09T00:58:27.794Z,53.37
2018-02-09T01:00:58.037Z,50.57
2018-02-09T01:03:27.870Z,51.80
2018-02-09T01:05:57.748Z,52.20
2018-02-09T01:08:27.598Z,51.63
2018-02-09T01:10:57.840Z,49.07
2018-02-09T01:13:27.737Z,47.37
2018-02-09T01:15:57.618Z,54.80
2018-02-09T01:18:27.585Z,55.30
2018-02-09T01:20:57.485Z,50.97
2018-02-09T01:23:27.344Z,50.20
2018-02-09T01:25:57.286Z,53.90
2018-02-09T01:28:27.200Z,51.17
2018-02-09T01:30:57.067Z,49.80
2018-02-09T01:33:27.092Z,54.07
2018-02-09T01:35:56.965Z,55.33
2018-02-09T01:38:26.858Z,53.27
2018-02-09T01:40:56.793Z,54.93
2018-02-09T01:43:26.662Z,52.17
2018-02-09T01:45:56.518Z,53.70
2018-02-09T01:48:26.741Z,54.37
2018-02-09T01:50:56.569Z,52.90
2018-02-09T01:53:26.632Z,53.27
2018-02-09T01:55:56.521Z,55.70
2018-02-09T01:58:26.656Z,53.03
2018-02-09T02:00:56.529Z,53.03
2018-02-09T02:03:26.478Z,54.37
2018-02-09T02:05:56.357Z,54.07
2018-02-09T02:08:26.199Z,50.87
2018-02-09T02:10:56.073Z,53.30
2018-02-09T02:13:25.936Z,52.50
2018-02-09T02:15:56.069Z,56.47
2018-02-09T02:18:25.926Z,52.07
2018-02-09T02:20:56.059Z,53.23
2018-02-09T02:23:25.945Z,57.57
2018-02-09T02:25:56.085Z,57.90
2018-02-09T02:28:25.936Z,54.50
2018-02-09T02:30:55.848Z,48.83
2018-02-09T02:33:25.709Z,53.97
2018-02-09T02:35:55.669Z,52.80
2018-02-09T02:38:25.574Z,54.63
2018-02-09T02:40:55.783Z,53.40
2018-02-09T02:43:25.634Z,58.10
2018-02-09T02:45:55.792Z,53.73
2018-02-09T02:48:25.739Z,56.37
2018-02-09T02:50:55.884Z,57.30
2018-02-09T02:53:25.737Z,54.93
2018-02-09T02:55:55.623Z,53.37
2018-02-09T02:58:25.508Z,53.43
2018-02-09T03:00:55.403Z,51.57
2018-02-09T03:03:25.263Z,51.57
2018-02-09T03:05:55.141Z,52.93
2018-02-09T03:08:25.022Z,52.87
2018-02-09T03:10:55.791Z,54.17
2018-02-09T03:13:26.099Z,55.40
2018-02-09T03:15:55.965Z,52.30
2018-02-09T03:18:26.087Z,54.23
2018-02-09T03:20:55.946Z,55.33
2018-02-09T03:23:26.104Z,56.67
2018-02-09T03:25:55.963Z,53.93
2018-02-09T03:28:25.875Z,51.07
2018-02-09T03:30:55.712Z,52.60
2018-02-09T03:33:25.642Z,49.10
2018-02-09T03:35:55.556Z,54.40
2018-02-09T03:38:25.777Z,56.67
2018-02-09T03:40:55.703Z,55.70
2018-02-09T03:43:25.568Z,54.97
2018-02-09T03:45:55.578Z,56.37
2018-02-09T03:48:25.563Z,49.13
2018-02-09T03:50:55.505Z,53.60
2018-02-09T03:53:25.693Z,52.33
2018-02-09T03:55:55.543Z,54.77
2018-02-09T03:58:25.478Z,52.57
2018-02-09T04:00:55.325Z,53.20
2018-02-09T04:03:25.199Z,56.80
2018-02-09T04:05:55.140Z,51.20
2018-02-09T04:08:24.979Z,56.10
2018-02-09T04:10:54.847Z,51.03
2018-02-09T04:13:24.704Z,49.93
2018-02-09T04:15:54.967Z,54.60
2018-02-09T04:18:24.794Z,51.70
2018-02-09T04:20:54.753Z,51.90
2018-02-09T04:23:24.632Z,50.20
2018-02-09T04:25:54.804Z,55.07
2018-02-09T04:28:24.704Z,54.17
2018-02-09T04:30:54.569Z,51.87
2018-02-09T04:33:24.474Z,50.90
2018-02-09T04:35:54.377Z,54.63
2018-02-09T04:38:24.467Z,54.37
2018-02-09T04:40:54.585Z,54.77
2018-02-09T04:43:24.492Z,57.03
2018-02-09T04:45:55.407Z,51.60
2018-02-09T04:48:25.282Z,57.20
2018-02-09T04:50:55.124Z,52.40
2018-02-09T04:53:24.970Z,55.97
2018-02-09T04:55:54.856Z,53.90
2018-02-09T04:58:24.800Z,51.43
2018-02-09T05:00:54.662Z,51.93
2018-02-09T05:03:24.786Z,55.13
2018-02-09T05:05:54.820Z,52.77
2018-02-09T05:08:25.068Z,59.17
2018-02-09T05:10:54.963Z,55.43
2018-02-09T05:13:24.888Z,54.50
2018-02-09T05:15:54.722Z,54.83
2018-02-09T05:18:24.774Z,53.87
2018-02-09T05:20:54.762Z,54.00
2018-02-09T05:23:24.970Z,55.10
2018-02-09T05:25:54.845Z,54.37
2018-02-09T05:28:25.041Z,52.63
2018-02-09T05:30:54.951Z,54.60
2018-02-09T05:33:25.156Z,50.70
2018-02-09T05:35:55.058Z,55.57
2018-02-09T05:38:25.226Z,55.57
2018-02-09T05:40:55.052Z,48.10
2018-02-09T05:43:25.159Z,54.80
2018-02-09T05:45:55.083Z,51.80
2018-02-09T05:48:25.053Z,54.60
2018-02-09T05:50:54.915Z,51.70
2018-02-09T05:53:24.792Z,53.50
2018-02-09T05:55:54.709Z,52.07
2018-02-09T05:58:24.648Z,53.07
2018-02-09T06:00:54.573Z,52.57
2018-02-09T06:03:24.528Z,53.90
2018-02-09T06:05:54.413Z,51.50
2018-02-09T06:08:24.384Z,52.27
2018-02-09T06:10:54.264Z,50.97
2018-02-09T06:13:24.127Z,59.27
2018-02-09T06:15:53.960Z,55.50
2018-02-09T06:18:24.079Z,52.63
2018-02-09T06:20:54.232Z,52.30
2018-02-09T06:23:24.236Z,53.50
2018-02-09T06:25:54.197Z,56.30
2018-02-09T06:28:24.071Z,53.77
2018-02-09T06:30:54.235Z,53.20
2018-02-09T06:33:24.653Z,52.60
2018-02-09T06:35:55.538Z,53.37
2018-02-09T06:38:26.246Z,51.57
2018-02-09T06:40:56.220Z,53.27
2018-02-09T06:43:26.141Z,51.10
2018-02-09T06:45:56.313Z,54.50
2018-02-09T06:48:26.185Z,56.43
2018-02-09T06:50:56.234Z,55.23
2018-02-09T06:53:26.209Z,53.27
2018-02-09T06:55:56.114Z,54.33
2018-02-09T06:58:26.337Z,54.00
2018-02-09T07:00:56.198Z,54.87
2018-02-09T07:03:26.148Z,53.10
2018-02-09T07:05:55.998Z,56.07
2018-02-09T07:08:25.910Z,54.10
2018-02-09T07:10:56.123Z,54.00
2018-02-09T07:13:26.009Z,55.00
2018-02-09T07:15:56.227Z,55.53
2018-02-09T07:18:26.243Z,57.00
2018-02-09T07:20:57.225Z,55.10
2018-02-09T07:23:27.187Z,56.70
2018-02-09T07:25:57.129Z,58.27
2018-02-09T07:28:26.987Z,55.20
2018-02-09T07:30:56.850Z,60.10
2018-02-09T07:33:26.719Z,50.80
2018-02-09T07:35:56.591Z,57.93
2018-02-09T07:38:26.475Z,58.00
2018-02-09T07:40:56.362Z,50.47
2018-02-09T07:43:26.260Z,54.90
2018-02-09T07:45:56.121Z,55.73
2018-02-09T07:48:25.988Z,56.77
2018-02-09T07:50:55.869Z,53.63
2018-02-09T07:53:27.643Z,60.07
2018-02-09T07:55:57.484Z,56.70
2018-02-09T07:58:27.630Z,53.80
2018-02-09T08:00:57.706Z,54.67
2018-02-09T08:03:27.993Z,62.10
2018-02-09T08:05:57.832Z,57.97
2018-02-09T08:08:27.984Z,59.03
2018-02-09T08:10:57.871Z,60.37
2018-02-09T08:13:30.803Z,60.23
2018-02-09T08:16:01.169Z,53.87
2018-02-09T08:18:34.814Z,54.03
2018-02-09T08:21:05.140Z,53.37
2018-02-09T08:23:35.619Z,58.83
2018-02-09T08:26:05.458Z,60.77
2018-02-09T08:28:35.317Z,54.77
2018-02-09T08:31:05.310Z,55.17
2018-02-09T08:33:35.310Z,57.20
2018-02-09T08:36:05.264Z,59.90
2018-02-09T08:38:35.284Z,56.10
2018-02-09T08:41:05.156Z,56.30
2018-02-09T08:43:35.138Z,61.00
2018-02-09T08:46:05.372Z,57.90
2018-02-09T08:48:35.245Z,59.50
2018-02-09T08:51:05.186Z,57.77
2018-02-09T08:53:35.824Z,59.07
2018-02-09T08:56:05.678Z,56.67
2018-02-09T08:58:35.608Z,50.57
2018-02-09T09:01:05.570Z,59.80
2018-02-09T09:03:35.762Z,53.83
2018-02-09T09:06:05.625Z,57.00
2018-02-09T09:08:35.614Z,57.73
2018-02-09T09:11:05.513Z,57.07
2018-02-09T09:13:36.114Z,58.77
2018-02-09T09:16:07.274Z,53.83
2018-02-09T09:18:37.184Z,60.30
2018-02-09T09:21:07.039Z,57.70
2018-02-09T09:23:37.913Z,58.83
2018-02-09T09:26:07.852Z,57.90
2018-02-09T09:28:37.768Z,53.23
2018-02-09T09:31:07.671Z,58.37
2018-02-09T09:33:37.632Z,58.43
2018-02-09T09:36:07.524Z,56.60
2018-02-09T09:38:37.813Z,56.93
2018-02-09T09:41:08.434Z,60.70
2018-02-09T09:43:39.406Z,57.10
2018-02-09T09:46:09.294Z,53.53
2018-02-09T09:48:39.188Z,60.57
2018-02-09T09:51:09.050Z,60.17
2018-02-09T09:53:38.961Z,57.50
2018-02-09T09:56:08.980Z,57.83
2018-02-09T09:58:38.872Z,62.03
2018-02-09T10:01:14.545Z,61.20
2018-02-09T10:03:44.436Z,55.90
2018-02-09T10:06:14.462Z,55.10
2018-02-09T10:08:44.449Z,58.13
2018-02-09T10:11:14.380Z,57.33
2018-02-09T10:13:44.247Z,61.37
2018-02-09T10:16:14.163Z,57.17
2018-02-09T10:18:44.008Z,59.20
2018-02-09T10:21:13.894Z,58.20
2018-02-09T10:23:44.173Z,60.53
2018-02-09T10:26:14.107Z,58.00
2018-02-09T10:28:44.244Z,56.20
2018-02-09T10:31:14.086Z,55.80
2018-02-09T10:33:44.118Z,62.10
2018-02-09T10:36:13.970Z,57.20
2018-02-09T10:38:43.828Z,56.67
2018-02-09T10:41:13.672Z,56.17
2018-02-09T10:43:43.578Z,58.47
2018-02-09T10:46:13.542Z,61.10
2018-02-09T10:48:43.701Z,56.40
2018-02-09T10:51:13.595Z,55.40
2018-02-09T10:53:43.737Z,57.67
2018-02-09T10:56:13.596Z,62.30
2018-02-09T10:58:43.793Z,58.20
2018-02-09T11:01:19.335Z,58.90
2018-02-09T11:03:49.353Z,57.77
2018-02-09T11:06:19.223Z,57.70
2018-02-09T11:08:49.123Z,57.87
2018-02-09T11:11:18.994Z,57.80
2018-02-09T11:13:48.876Z,57.07
2018-02-09T11:16:18.786Z,57.50
2018-02-09T11:18:48.620Z,53.50
2018-02-09T11:21:18.802Z,54.10
2018-02-09T11:23:48.687Z,56.67
2018-02-09T11:26:18.622Z,58.93
2018-02-09T11:28:48.470Z,56.53
2018-02-09T11:31:18.615Z,57.80
2018-02-09T11:33:48.570Z,62.67
2018-02-09T11:36:18.799Z,58.83
2018-02-09T11:38:48.643Z,57.63
2018-02-09T11:41:18.764Z,55.80
2018-02-09T11:43:48.659Z,54.30
2018-02-09T11:46:18.572Z,53.13
2018-02-09T11:48:48.434Z,55.90
2018-02-09T11:51:18.379Z,55.33
2018-02-09T11:53:48.225Z,54.27
2018-02-09T11:56:18.073Z,56.90
2018-02-09T11:58:47.946Z,55.80
2018-02-09T12:01:17.834Z,54.77
2018-02-09T12:03:47.749Z,54.20
2018-02-09T12:06:17.600Z,55.97
2018-02-09T12:08:47.736Z,51.43
2018-02-09T12:11:17.626Z,58.10
2018-02-09T12:13:47.480Z,52.73
2018-02-09T12:16:17.365Z,52.13
2018-02-09T12:18:47.245Z,55.20
2018-02-09T12:21:17.089Z,56.67
2018-02-09T12:23:47.093Z,57.43
2018-02-09T12:26:16.935Z,52.40
2018-02-09T12:28:46.821Z,56.00
2018-02-09T12:31:17.084Z,56.10
2018-02-09T12:33:46.929Z,57.93
2018-02-09T12:36:16.818Z,56.70
2018-02-09T12:38:46.687Z,53.60
2018-02-09T12:41:16.635Z,55.90
2018-02-09T12:43:46.505Z,54.10
2018-02-09T12:46:16.513Z,57.57
2018-02-09T12:48:46.411Z,53.00
2018-02-09T12:51:16.287Z,47.50
2018-02-09T12:53:46.164Z,57.20
2018-02-09T12:56:16.070Z,58.67
2018-02-09T12:58:45.900Z,52.87
2018-02-09T13:01:15.812Z,50.00
2018-02-09T13:03:45.669Z,58.87
2018-02-09T13:06:15.617Z,53.23
2018-02-09T13:08:45.478Z,53.87
2018-02-09T13:11:15.369Z,58.27
2018-02-09T13:13:45.562Z,54.63
2018-02-09T13:16:15.446Z,56.23
2018-02-09T13:18:49.600Z,55.10
2018-02-09T13:21:19.597Z,54.10
2018-02-09T13:24:01.186Z,53.37
2018-02-09T13:26:31.022Z,55.53
2018-02-09T13:29:00.870Z,54.10
2018-02-09T13:31:30.699Z,53.47
2018-02-09T13:34:01.682Z,56.60
2018-02-09T13:36:43.214Z,52.70
2018-02-09T13:39:13.101Z,49.30
2018-02-09T13:41:43.019Z,51.80
2018-02-09T13:44:13.218Z,48.57
2018-02-09T13:46:43.077Z,53.20
2018-02-09T13:49:13.405Z,52.70
2018-02-09T13:51:43.278Z,52.50
2018-02-09T13:54:13.188Z,55.70
2018-02-09T13:56:43.325Z,53.70
2018-02-09T13:59:13.211Z,55.13
2018-02-09T14:01:43.520Z,56.27
2018-02-09T14:04:13.409Z,53.73
2018-02-09T14:06:43.290Z,50.77
2018-02-09T14:09:13.164Z,50.47
2018-02-09T14:11:43.012Z,51.00
2018-02-09T14:14:12.861Z,49.70
2018-02-09T14:16:42.826Z,51.67
2018-02-09T14:19:12.720Z,53.53
2018-02-09T14:21:42.654Z,52.30
2018-02-09T14:24:12.770Z,52.73
2018-02-09T14:26:42.640Z,51.93
2018-02-09T14:29:13.149Z,49.13
2018-02-09T14:31:43.034Z,50.57
2018-02-09T14:34:12.916Z,50.37
2018-02-09T14:36:42.772Z,47.90
2018-02-09T14:39:12.782Z,50.50
2018-02-09T14:41:42.698Z,49.73
2018-02-09T14:44:12.879Z,50.13
2018-02-09T14:46:42.708Z,48.20
2018-02-09T14:49:13.345Z,47.73
2018-02-09T14:51:43.901Z,49.70
2018-02-09T14:54:14.013Z,48.70
2018-02-09T14:56:44.206Z,48.30
2018-02-09T14:59:14.086Z,49.37
2018-02-09T15:01:43.941Z,47.80
2018-02-09T15:04:13.817Z,49.00
2018-02-09T15:06:43.847Z,51.97
2018-02-09T15:09:13.855Z,49.63
2018-02-09T15:11:43.737Z,48.40
2018-02-09T15:14:13.911Z,50.87
2018-02-09T15:16:43.755Z,51.30
2018-02-09T15:19:13.648Z,49.87
2018-02-09T15:21:43.954Z,48.93
2018-02-09T15:24:13.824Z,53.80
2018-02-09T15:26:43.713Z,50.30
2018-02-09T15:29:13.631Z,53.50
2018-02-09T15:31:43.510Z,49.10
2018-02-09T15:34:13.486Z,52.97
2018-02-09T15:36:43.357Z,51.70
2018-02-09T15:39:13.252Z,53.97
2018-02-09T15:41:43.143Z,52.00
2018-02-09T15:44:13.078Z,55.30
2018-02-09T15:46:43.286Z,54.37
2018-02-09T15:49:13.161Z,54.50
2018-02-09T15:51:43.061Z,54.80
2018-02-09T15:54:13.027Z,55.93
2018-02-09T15:56:42.961Z,57.37
2018-02-09T15:59:12.808Z,58.17
2018-02-09T16:01:43.344Z,57.07
2018-02-09T16:04:13.192Z,56.83
2018-02-09T16:06:43.135Z,56.70
2018-02-09T16:09:12.981Z,58.00
2018-02-09T16:11:42.850Z,57.17
2018-02-09T16:14:12.703Z,62.10
2018-02-09T16:16:42.630Z,64.87
2018-02-09T16:19:12.575Z,66.93
2018-02-09T16:21:42.560Z,64.70
2018-02-09T16:24:12.457Z,68.43
2018-02-09T16:26:42.364Z,69.90
2018-02-09T16:29:12.440Z,69.13
2018-02-09T16:31:42.321Z,75.23
2018-02-09T16:34:12.232Z,73.27
2018-02-09T16:36:42.178Z,71.37
2018-02-09T16:39:12.144Z,73.13
2018-02-09T16:41:42.034Z,76.80
2018-02-09T16:44:11.881Z,71.87
2018-02-09T16:46:41.770Z,74.03
2018-02-09T16:49:11.617Z,72.73
2018-02-09T16:51:41.764Z,74.20
2018-02-09T16:54:11.616Z,72.80
2018-02-09T16:56:41.491Z,73.47
2018-02-09T16:59:11.333Z,74.77
2018-02-09T17:01:41.921Z,71.30
2018-02-09T17:04:11.881Z,75.03
2018-02-09T17:06:41.856Z,71.43
2018-02-09T17:09:11.682Z,73.90
2018-02-09T17:11:41.591Z,72.13
2018-02-09T17:14:11.540Z,73.23
2018-02-09T17:16:41.653Z,72.97
2018-02-09T17:19:11.499Z,68.77
2018-02-09T17:21:41.449Z,70.00
2018-02-09T17:24:11.346Z,70.87
2018-02-09T17:26:41.169Z,69.70
2018-02-09T17:29:12.082Z,67.37
2018-02-09T17:31:41.907Z,65.03
2018-02-09T17:34:11.768Z,68.70
2018-02-09T17:36:41.646Z,71.57
2018-02-09T17:39:11.526Z,67.60
2018-02-09T17:41:41.452Z,67.47
2018-02-09T17:44:11.322Z,65.63
2018-02-09T17:46:41.152Z,65.37
2018-02-09T17:49:11.023Z,64.00
2018-02-09T17:51:40.868Z,68.10
2018-02-09T17:54:10.710Z,63.90
2018-02-09T17:56:40.574Z,64.90
2018-02-09T17:59:10.588Z,61.70
2018-02-09T18:01:40.537Z,63.30
2018-02-09T18:04:10.436Z,64.67
2018-02-09T18:06:40.346Z,68.07
2018-02-09T18:09:10.181Z,64.37
2018-02-09T18:11:40.092Z,67.40
2018-02-09T18:14:09.991Z,70.27
2018-02-09T18:16:39.868Z,66.97
2018-02-09T18:19:09.751Z,67.40
2018-02-09T18:21:39.647Z,65.20
2018-02-09T18:24:09.501Z,70.27
2018-02-09T18:26:39.354Z,69.00
2018-02-09T18:29:09.269Z,64.30
2018-02-09T18:31:39.131Z,66.20
2018-02-09T18:34:09.100Z,62.80
2018-02-09T18:36:38.985Z,64.07
2018-02-09T18:39:08.830Z,64.73
2018-02-09T18:41:38.708Z,67.97
2018-02-09T18:44:08.674Z,62.27
2018-02-09T18:46:38.584Z,63.50
2018-02-09T18:49:08.457Z,62.77
2018-02-09T18:51:38.342Z,62.13
2018-02-09T18:54:08.187Z,59.87
2018-02-09T18:56:38.047Z,61.93
2018-02-09T18:59:07.927Z,66.50
2018-02-09T19:01:37.769Z,69.50
2018-02-09T19:04:07.633Z,67.40
2018-02-09T19:06:37.482Z,68.93
2018-02-09T19:09:07.462Z,70.87
2018-02-09T19:11:37.302Z,68.77
2018-02-09T19:14:07.209Z,71.87
2018-02-09T19:16:37.052Z,69.83
2018-02-09T19:19:06.919Z,71.50
2018-02-09T19:21:36.810Z,71.40
2018-02-09T19:24:06.698Z,68.73
2018-02-09T19:26:36.748Z,76.77
2018-02-09T19:29:06.664Z,74.87
2018-02-09T19:31:36.619Z,75.50
2018-02-09T19:34:06.513Z,72.63
2018-02-09T19:36:36.605Z,71.80
2018-02-09T19:39:06.539Z,75.70
2018-02-09T19:41:36.443Z,70.57
2018-02-09T19:44:06.298Z,74.97
2018-02-09T19:46:36.377Z,75.87
2018-02-09T19:49:06.357Z,77.43
2018-02-09T19:51:36.309Z,76.70
2018-02-09T19:54:06.359Z,72.83
2018-02-09T19:56:36.482Z,83.20
2018-02-09T19:59:06.493Z,81.73
2018-02-09T20:01:36.653Z,82.73
2018-02-09T20:04:06.712Z,85.90
2018-02-09T20:06:36.795Z,84.13
2018-02-09T20:09:06.879Z,81.63
2018-02-09T20:11:36.918Z,82.00
2018-02-09T20:14:06.929Z,81.63
2018-02-09T20:16:37.004Z,84.83
2018-02-09T20:19:06.942Z,85.00
2018-02-09T20:21:36.982Z,87.30
2018-02-09T20:24:06.897Z,85.13
2018-02-09T20:26:37.563Z,93.70
2018-02-09T20:29:18.708Z,87.30
2018-02-09T20:31:48.934Z,89.30
2018-02-09T20:34:19.035Z,82.23
2018-02-09T20:36:49.254Z,91.70
2018-02-09T20:39:19.324Z,88.97
2018-02-09T20:41:49.577Z,87.47
2018-02-09T20:44:19.588Z,91.07
2018-02-09T20:46:51.372Z,87.70
2018-02-09T20:49:22.208Z,89.17
2018-02-09T20:51:52.384Z,91.17
2018-02-09T20:54:23.434Z,92.97
2018-02-09T20:56:53.502Z,92.83
2018-02-09T20:59:23.684Z,90.00
2018-02-09T21:01:53.800Z,92.20
2018-02-09T21:04:23.936Z,91.63
2018-02-09T21:06:54.816Z,93.00
2018-02-09T21:09:24.959Z,92.90
2018-02-09T21:11:55.008Z,90.20
2018-02-09T21:14:25.093Z,92.63
2018-02-09T21:16:55.209Z,92.87
2018-02-09T21:19:25.565Z,86.93
2018-02-09T21:21:55.752Z,91.30
2018-02-09T21:24:25.868Z,88.80
2018-02-09T21:26:55.994Z,89.47
2018-02-09T21:29:26.099Z,90.70
2018-02-09T21:31:56.158Z,86.60
2018-02-09T21:34:26.317Z,87.90
2018-02-09T21:36:56.440Z,85.33
2018-02-09T21:39:26.789Z,86.03
2018-02-09T21:41:56.879Z,97.50
2018-02-09T21:44:26.970Z,92.60
2018-02-09T21:46:57.005Z,85.67
2018-02-09T21:49:27.062Z,93.10
2018-02-09T21:51:57.172Z,94.00
2018-02-09T21:54:27.398Z,90.73
2018-02-09T21:56:57.488Z,93.40
2018-02-09T21:59:27.469Z,85.77
2018-02-09T22:01:57.405Z,86.70
2018-02-09T22:04:27.466Z,84.87
2018-02-09T22:06:57.394Z,92.83
2018-02-09T22:09:27.864Z,89.60
2018-02-09T22:11:57.921Z,86.47
2018-02-09T22:14:28.245Z,90.17
2018-02-09T22:16:58.306Z,86.67
2018-02-09T22:19:28.460Z,99.50
2018-02-09T22:21:58.510Z,93.10
2018-02-09T22:24:28.470Z,92.33
2018-02-09T22:26:58.384Z,92.47
2018-02-09T22:29:28.282Z,96.27
2018-02-09T22:31:58.246Z,91.77
2018-02-09T22:34:28.213Z,87.40
2018-02-09T22:36:58.105Z,91.77
2018-02-09T22:39:28.005Z,92.00
2018-02-09T22:41:57.937Z,92.60
2018-02-09T22:44:27.826Z,92.33
2018-02-09T22:46:58.629Z,90.60
2018-02-09T22:49:28.623Z,91.87
2018-02-09T22:51:58.471Z,90.80
2018-02-09T22:54:28.403Z,90.17
2018-02-09T22:56:58.567Z,89.27
2018-02-09T22:59:28.466Z,89.70
2018-02-09T23:01:58.375Z,95.33
2018-02-09T23:04:28.254Z,86.10
2018-02-09T23:06:58.135Z,84.93
2018-02-09T23:09:28.038Z,88.93
2018-02-09T23:11:58.524Z,85.57
2018-02-09T23:14:28.503Z,91.70
2018-02-09T23:16:58.391Z,93.07
2018-02-09T23:19:28.245Z,82.70
2018-02-09T23:21:58.178Z,92.03
2018-02-09T23:24:28.100Z,89.33
2018-02-09T23:26:57.997Z,88.07
2018-02-09T23:29:27.938Z,89.73
2018-02-09T23:31:58.038Z,88.47
2018-02-09T23:34:27.966Z,88.10
2018-02-09T23:36:57.849Z,92.03
2018-02-09T23:39:27.744Z,88.63
2018-02-09T23:41:57.646Z,89.47
2018-02-09T23:44:27.685Z,95.97
2018-02-09T23:46:58.489Z,91.17
2018-02-09T23:49:28.382Z,95.13
2018-02-09T23:51:58.247Z,90.90
2018-02-09T23:54:28.131Z,87.83
2018-02-09T23:56:58.761Z,91.10
2018-02-09T23:59:28.642Z,89.77
